Time;durP1;ratioP1;P1;durP2;ratioP2;P2;SDS_P1;SDS_P2;PMS_P1;PMS_P2;Temp;Humidity;BMP_temperature;BMP_pressure;BME280_temperature;BME280_humidity;BME280_pressure;Samples;Min_cycle;Max_cycle;Signal;HPM_P1;HPM_P2
2021/06/24 00:00:45;;;;;;;0.28;0.28;;;17.30;99.90;;;;;;4417195;32;20069;-74
2021/06/24 00:03:11;;;;;;;2.42;0.75;;;17.20;99.90;;;;;;4418584;32;20072;-75
2021/06/24 00:05:37;;;;;;;0.50;0.50;;;17.10;99.90;;;;;;4419562;32;20114;-75
2021/06/24 00:08:02;;;;;;;0.57;0.57;;;17.00;99.90;;;;;;4421172;32;20146;-74
2021/06/24 00:10:28;;;;;;;0.50;0.50;;;16.90;99.90;;;;;;4422695;32;20098;-74
2021/06/24 00:12:53;;;;;;;0.60;0.60;;;16.90;99.90;;;;;;4423455;32;20069;-74
2021/06/24 00:15:19;;;;;;;0.35;0.35;;;16.80;99.90;;;;;;4421194;32;20070;-74
2021/06/24 00:17:44;;;;;;;0.45;0.45;;;16.80;99.90;;;;;;4420321;32;20106;-75
2021/06/24 00:20:10;;;;;;;0.20;0.20;;;16.70;99.90;;;;;;4421549;32;20109;-75
2021/06/24 00:22:36;;;;;;;0.40;0.40;;;16.80;99.90;;;;;;4422478;32;20522;-75
2021/06/24 00:25:02;;;;;;;1.00;0.70;;;17.00;99.90;;;;;;4421751;32;20085;-75
2021/06/24 00:27:27;;;;;;;0.40;0.40;;;17.10;99.90;;;;;;4419395;32;20078;-75
2021/06/24 00:29:53;;;;;;;0.40;0.40;;;17.20;99.90;;;;;;4421271;32;20065;-75
2021/06/24 00:32:18;;;;;;;0.55;0.55;;;17.20;99.90;;;;;;4423009;32;20077;-75
2021/06/24 00:34:44;;;;;;;0.80;0.68;;;17.20;99.90;;;;;;4419843;32;20545;-75
2021/06/24 00:37:09;;;;;;;1.02;0.60;;;17.20;99.90;;;;;;4421526;32;20478;-75
2021/06/24 00:39:35;;;;;;;0.70;0.70;;;17.10;99.90;;;;;;4421222;32;20478;-75
2021/06/24 00:42:01;;;;;;;1.20;0.52;;;17.10;99.90;;;;;;4421270;32;20081;-75
2021/06/24 00:44:26;;;;;;;1.20;0.75;;;17.10;99.90;;;;;;4422067;32;20073;-75
2021/06/24 00:46:54;;;;;;;0.40;0.40;;;17.10;99.90;;;;;;4421048;32;20168;-75
2021/06/24 00:49:19;;;;;;;5.22;0.80;;;17.10;99.90;;;;;;4419949;32;20111;-75
2021/06/24 00:51:45;;;;;;;0.50;0.50;;;17.10;99.90;;;;;;4423220;32;20521;-75
2021/06/24 00:54:11;;;;;;;0.70;0.70;;;17.20;99.90;;;;;;4422050;32;20082;-75
2021/06/24 00:56:36;;;;;;;0.60;0.40;;;17.20;99.90;;;;;;4418713;32;20142;-75
2021/06/24 00:59:04;;;;;;;0.40;0.40;;;17.10;99.90;;;;;;4423063;32;20061;-75
2021/06/24 01:01:31;;;;;;;0.52;0.52;;;17.10;99.90;;;;;;4419056;32;20069;-75
2021/06/24 01:03:57;;;;;;;0.32;0.32;;;17.00;99.90;;;;;;4423275;32;20125;-75
2021/06/24 01:06:22;;;;;;;0.40;0.40;;;16.90;99.90;;;;;;4420683;32;20521;-75
2021/06/24 01:08:48;;;;;;;0.68;0.68;;;16.80;99.90;;;;;;4420732;32;20522;-75
2021/06/24 01:11:14;;;;;;;0.90;0.55;;;16.90;99.90;;;;;;4419600;32;20069;-75
2021/06/24 01:13:41;;;;;;;0.20;0.20;;;16.90;99.90;;;;;;4419239;32;20132;-75
2021/06/24 01:16:06;;;;;;;0.40;0.40;;;16.80;99.90;;;;;;4420284;32;20111;-75
2021/06/24 01:18:32;;;;;;;0.40;0.40;;;16.70;99.90;;;;;;4419353;32;20061;-75
2021/06/24 01:20:57;;;;;;;0.52;0.52;;;16.80;99.90;;;;;;4421839;32;20069;-75
2021/06/24 01:23:23;;;;;;;0.40;0.40;;;16.90;99.90;;;;;;4423173;32;20066;-75
2021/06/24 01:25:48;;;;;;;0.62;0.62;;;16.80;99.90;;;;;;4422549;32;20124;-75
2021/06/24 01:28:14;;;;;;;0.40;0.40;;;16.70;99.90;;;;;;4419611;32;20069;-75
2021/06/24 01:30:41;;;;;;;0.30;0.30;;;16.80;99.90;;;;;;4418548;32;20073;-75
2021/06/24 01:33:08;;;;;;;0.32;0.32;;;16.80;99.90;;;;;;4424046;32;20066;-75
2021/06/24 01:35:34;;;;;;;0.40;0.40;;;16.80;99.90;;;;;;4419177;32;20411;-75
2021/06/24 01:38:02;;;;;;;2.12;0.98;;;16.80;99.90;;;;;;4419534;32;20073;-75
2021/06/24 01:40:29;;;;;;;0.55;0.55;;;16.80;99.90;;;;;;4424290;32;20465;-75
2021/06/24 01:42:55;;;;;;;0.32;0.32;;;16.80;99.90;;;;;;4419737;32;20065;-75
2021/06/24 01:45:21;;;;;;;0.30;0.30;;;16.80;99.90;;;;;;4420359;32;20570;-75
2021/06/24 01:47:46;;;;;;;0.47;0.47;;;16.90;99.90;;;;;;4420352;32;20061;-75
2021/06/24 01:50:13;;;;;;;0.30;0.30;;;16.90;99.90;;;;;;4419988;32;20140;-75
2021/06/24 01:52:41;;;;;;;0.93;0.55;;;17.00;99.90;;;;;;4418890;32;20499;-75
2021/06/24 01:55:07;;;;;;;0.98;0.60;;;17.00;99.90;;;;;;4419998;32;20139;-75
2021/06/24 01:57:33;;;;;;;0.50;0.50;;;16.90;99.90;;;;;;4419338;32;20070;-75
2021/06/24 01:59:58;;;;;;;0.30;0.30;;;16.90;99.90;;;;;;4421898;32;20070;-75
2021/06/24 02:02:24;;;;;;;0.30;0.30;;;17.00;99.90;;;;;;4418577;32;20095;-75
2021/06/24 02:04:50;;;;;;;0.40;0.40;;;16.90;99.90;;;;;;4419561;32;20506;-75
2021/06/24 02:07:16;;;;;;;0.57;0.57;;;16.90;99.90;;;;;;4419637;32;20078;-75
2021/06/24 02:09:41;;;;;;;0.40;0.40;;;16.80;99.90;;;;;;4420131;32;20156;-75
2021/06/24 02:12:07;;;;;;;0.37;0.37;;;16.90;99.90;;;;;;4419060;32;20392;-75
2021/06/24 02:14:33;;;;;;;2.20;1.10;;;17.00;99.90;;;;;;4420724;32;20065;-75
2021/06/24 02:16:59;;;;;;;0.32;0.32;;;17.10;99.90;;;;;;4420372;32;20069;-75
2021/06/24 02:19:24;;;;;;;0.60;0.60;;;17.10;99.90;;;;;;4421325;32;20520;-75
2021/06/24 02:21:50;;;;;;;1.95;0.68;;;17.20;99.90;;;;;;4420524;32;20069;-75
2021/06/24 02:24:15;;;;;;;0.82;0.50;;;17.20;99.90;;;;;;4419008;32;20072;-75
2021/06/24 02:26:41;;;;;;;0.40;0.40;;;17.20;99.90;;;;;;4419238;32;20065;-75
2021/06/24 02:29:06;;;;;;;0.40;0.40;;;17.20;99.90;;;;;;4419680;32;20491;-75
2021/06/24 02:31:32;;;;;;;0.50;0.45;;;17.10;99.90;;;;;;4418971;32;20082;-75
2021/06/24 02:33:58;;;;;;;0.52;0.52;;;17.00;99.90;;;;;;4420046;32;20086;-75
2021/06/24 02:36:24;;;;;;;0.40;0.40;;;17.00;99.90;;;;;;4419032;32;20061;-75
2021/06/24 02:38:50;;;;;;;0.60;0.60;;;17.00;99.90;;;;;;4418317;32;20078;-74
2021/06/24 02:41:16;;;;;;;0.30;0.30;;;17.00;99.90;;;;;;4421397;32;20184;-74
2021/06/24 02:43:41;;;;;;;0.43;0.43;;;16.90;99.90;;;;;;4418447;32;20065;-74
2021/06/24 02:46:07;;;;;;;0.50;0.50;;;17.10;99.90;;;;;;4419765;32;20120;-75
2021/06/24 02:48:32;;;;;;;0.30;0.30;;;17.10;99.90;;;;;;4418151;32;20082;-74
2021/06/24 02:50:58;;;;;;;0.20;0.20;;;17.00;99.90;;;;;;4418894;32;20116;-74
2021/06/24 02:53:23;;;;;;;0.20;0.20;;;17.10;99.90;;;;;;4422062;32;20081;-74
2021/06/24 02:55:49;;;;;;;0.80;0.80;;;17.20;99.90;;;;;;4418562;32;20467;-75
2021/06/24 02:58:14;;;;;;;0.37;0.37;;;17.10;99.90;;;;;;4419516;32;20120;-75
2021/06/24 03:00:40;;;;;;;0.70;0.70;;;17.00;99.90;;;;;;4418964;32;20078;-75
2021/06/24 03:03:05;;;;;;;1.12;0.68;;;17.10;99.90;;;;;;4419558;32;20090;-75
2021/06/24 03:05:31;;;;;;;0.40;0.40;;;17.10;99.90;;;;;;4420826;32;20065;-75
2021/06/24 03:07:56;;;;;;;0.45;0.45;;;17.00;99.90;;;;;;4420378;32;20416;-75
2021/06/24 03:10:24;;;;;;;0.30;0.30;;;17.00;99.90;;;;;;4418440;32;20070;-75
2021/06/24 03:12:50;;;;;;;1.30;0.90;;;16.90;99.90;;;;;;4419689;32;20069;-75
2021/06/24 03:15:15;;;;;;;0.45;0.45;;;16.90;99.90;;;;;;4418527;32;20459;-74
2021/06/24 03:17:41;;;;;;;0.40;0.40;;;17.00;99.90;;;;;;4418057;32;20086;-74
2021/06/24 03:20:08;;;;;;;0.43;0.43;;;17.10;99.90;;;;;;4421244;32;20079;-75
2021/06/24 03:22:34;;;;;;;0.32;0.32;;;17.10;99.90;;;;;;4418521;32;20074;-75
2021/06/24 03:25:01;;;;;;;0.55;0.55;;;17.00;99.90;;;;;;4421853;32;20074;-75
2021/06/24 03:27:27;;;;;;;0.30;0.30;;;17.10;99.90;;;;;;4419416;32;20073;-75
2021/06/24 03:29:52;;;;;;;3.67;0.98;;;17.10;99.90;;;;;;4419940;32;20097;-75
2021/06/24 03:32:18;;;;;;;0.30;0.30;;;17.10;99.90;;;;;;4420399;32;20473;-75
2021/06/24 03:34:43;;;;;;;0.30;0.30;;;17.00;99.90;;;;;;4419098;32;20116;-75
2021/06/24 03:37:09;;;;;;;0.40;0.40;;;17.10;99.90;;;;;;4418219;32;20073;-75
2021/06/24 03:39:34;;;;;;;0.32;0.32;;;17.10;99.90;;;;;;4418847;32;20066;-75
2021/06/24 03:42:00;;;;;;;0.37;0.37;;;17.10;99.90;;;;;;4423634;32;20143;-75
2021/06/24 03:44:25;;;;;;;0.30;0.30;;;17.10;99.90;;;;;;4420111;32;20446;-75
2021/06/24 03:46:51;;;;;;;0.37;0.37;;;17.20;99.90;;;;;;4421105;32;20069;-75
2021/06/24 03:49:16;;;;;;;0.45;0.45;;;17.20;99.90;;;;;;4420895;32;20069;-75
2021/06/24 03:51:42;;;;;;;0.80;0.77;;;17.10;99.90;;;;;;4422573;32;20073;-75
2021/06/24 03:54:07;;;;;;;0.45;0.45;;;17.20;99.90;;;;;;4423167;32;20078;-75
2021/06/24 03:56:34;;;;;;;2.20;0.82;;;17.20;99.90;;;;;;4421130;32;20087;-75
2021/06/24 03:58:59;;;;;;;0.30;0.30;;;17.20;99.90;;;;;;4423524;32;20471;-74
2021/06/24 04:01:25;;;;;;;0.85;0.75;;;17.10;99.90;;;;;;4423675;32;20077;-74
2021/06/24 04:03:51;;;;;;;0.88;0.68;;;17.20;99.90;;;;;;4421189;32;20073;-74
2021/06/24 04:06:16;;;;;;;1.25;1.05;;;17.20;99.90;;;;;;4423428;32;20086;-74
2021/06/24 04:08:41;;;;;;;0.55;0.55;;;17.20;99.90;;;;;;4419472;32;20083;-75
2021/06/24 04:11:07;;;;;;;0.32;0.32;;;17.20;99.90;;;;;;4420920;32;20109;-75
2021/06/24 04:13:32;;;;;;;1.85;0.77;;;17.20;99.90;;;;;;4419996;32;20128;-75
2021/06/24 04:15:58;;;;;;;2.33;0.75;;;17.30;99.90;;;;;;4420281;32;20081;-75
2021/06/24 04:18:24;;;;;;;8.43;0.73;;;17.40;99.90;;;;;;4419577;32;20081;-75
2021/06/24 04:20:50;;;;;;;1.15;0.75;;;17.40;99.90;;;;;;4422607;32;20081;-75
2021/06/24 04:23:16;;;;;;;11.18;0.98;;;17.30;99.90;;;;;;4422500;32;20082;-75
2021/06/24 04:25:42;;;;;;;0.40;0.40;;;17.30;99.90;;;;;;4420010;32;20065;-74
2021/06/24 04:28:07;;;;;;;0.40;0.40;;;17.30;99.90;;;;;;4420836;32;20073;-75
2021/06/24 04:30:33;;;;;;;0.40;0.40;;;17.20;99.90;;;;;;4419232;32;20073;-74
2021/06/24 04:32:59;;;;;;;1.25;0.90;;;17.30;99.90;;;;;;4423649;32;20081;-74
2021/06/24 04:35:26;;;;;;;8.63;1.17;;;17.30;99.90;;;;;;4421320;32;20086;-74
2021/06/24 04:37:52;;;;;;;3.25;0.70;;;17.40;99.90;;;;;;4420127;32;20079;-75
2021/06/24 04:40:17;;;;;;;0.30;0.30;;;17.50;99.90;;;;;;4420721;32;20078;-75
2021/06/24 04:42:43;;;;;;;2.10;0.65;;;17.50;99.90;;;;;;4420859;32;20061;-75
2021/06/24 04:45:11;;;;;;;0.70;0.70;;;17.40;99.90;;;;;;4422928;32;20073;-75
2021/06/24 04:47:37;;;;;;;4.50;1.30;;;17.40;99.90;;;;;;4419147;32;20058;-75
2021/06/24 04:50:05;;;;;;;1.58;0.37;;;17.40;99.90;;;;;;4424227;32;20077;-75
2021/06/24 04:52:30;;;;;;;0.40;0.40;;;17.50;99.90;;;;;;4418965;32;20087;-75
2021/06/24 04:54:56;;;;;;;0.50;0.50;;;17.60;99.90;;;;;;4424939;32;20073;-75
2021/06/24 04:57:21;;;;;;;0.68;0.68;;;17.60;99.90;;;;;;4420007;32;20124;-75
2021/06/24 04:59:47;;;;;;;0.37;0.37;;;17.60;99.90;;;;;;4422497;32;20093;-75
2021/06/24 05:02:12;;;;;;;0.50;0.50;;;17.60;99.90;;;;;;4423317;32;20081;-75
2021/06/24 05:04:38;;;;;;;0.62;0.62;;;17.60;99.90;;;;;;4422255;32;20507;-75
2021/06/24 05:07:08;;;;;;;0.80;0.55;;;17.70;99.90;;;;;;4419485;32;20192;-75
2021/06/24 05:09:38;;;;;;;0.47;0.47;;;17.70;99.90;;;;;;4423749;32;20089;-75
2021/06/24 05:12:06;;;;;;;0.47;0.47;;;17.60;99.90;;;;;;4423177;32;20116;-75
2021/06/24 05:14:31;;;;;;;0.88;0.88;;;17.60;99.90;;;;;;4419811;32;20065;-75
2021/06/24 05:16:57;;;;;;;0.40;0.40;;;17.60;99.90;;;;;;4420038;32;20073;-75
2021/06/24 05:19:23;;;;;;;1.55;0.77;;;17.50;99.90;;;;;;4422396;32;20094;-75
2021/06/24 05:21:48;;;;;;;4.22;0.50;;;17.50;99.90;;;;;;4420353;32;20069;-75
2021/06/24 05:24:14;;;;;;;0.32;0.32;;;17.50;99.90;;;;;;4418526;32;20597;-75
2021/06/24 05:26:39;;;;;;;0.55;0.55;;;17.50;99.90;;;;;;4418199;32;20561;-75
2021/06/24 05:29:05;;;;;;;0.62;0.55;;;17.50;99.90;;;;;;4419847;32;20069;-75
2021/06/24 05:31:31;;;;;;;0.57;0.57;;;17.50;99.90;;;;;;4420917;32;20066;-75
2021/06/24 05:33:57;;;;;;;0.40;0.40;;;17.40;99.90;;;;;;4421614;32;20076;-75
2021/06/24 05:36:23;;;;;;;0.30;0.30;;;17.40;99.90;;;;;;4418277;32;20467;-74
2021/06/24 05:38:49;;;;;;;0.30;0.30;;;17.30;99.90;;;;;;4417604;32;20070;-74
2021/06/24 05:41:14;;;;;;;0.37;0.37;;;17.20;99.90;;;;;;4418190;32;20079;-74
2021/06/24 05:43:40;;;;;;;0.30;0.30;;;17.30;99.90;;;;;;4420200;32;20061;-74
2021/06/24 05:46:05;;;;;;;0.55;0.52;;;17.20;99.90;;;;;;4422444;32;20381;-74
2021/06/24 05:48:33;;;;;;;1.10;0.57;;;17.20;99.90;;;;;;4419049;32;20094;-74
2021/06/24 05:50:59;;;;;;;1.62;0.95;;;17.10;99.90;;;;;;4421907;32;20121;-75
2021/06/24 05:53:25;;;;;;;0.50;0.50;;;17.00;99.90;;;;;;4417052;32;20069;-74
2021/06/24 05:55:50;;;;;;;0.65;0.65;;;17.00;99.90;;;;;;4421312;32;20134;-74
2021/06/24 05:58:19;;;;;;;11.70;0.50;;;16.90;99.90;;;;;;4419908;32;20066;-74
2021/06/24 06:00:45;;;;;;;0.50;0.50;;;16.90;99.90;;;;;;4421361;32;20120;-74
2021/06/24 06:03:10;;;;;;;0.75;0.70;;;17.00;99.90;;;;;;4423003;32;20419;-74
2021/06/24 06:05:36;;;;;;;10.65;1.62;;;17.00;99.90;;;;;;4420881;32;20065;-75
2021/06/24 06:08:04;;;;;;;5.35;1.00;;;17.10;99.90;;;;;;4421643;32;20070;-74
2021/06/24 06:10:30;;;;;;;0.55;0.55;;;17.10;99.90;;;;;;4417310;32;20079;-74
2021/06/24 06:12:56;;;;;;;0.55;0.55;;;17.10;99.90;;;;;;4422598;32;20127;-74
2021/06/24 06:15:22;;;;;;;2.17;0.60;;;17.00;99.90;;;;;;4418526;32;20120;-75
2021/06/24 06:17:47;;;;;;;0.62;0.40;;;17.00;99.90;;;;;;4419820;32;20812;-74
2021/06/24 06:20:13;;;;;;;0.30;0.30;;;17.10;99.90;;;;;;4418774;32;20073;-75
2021/06/24 06:22:39;;;;;;;0.57;0.57;;;17.10;99.90;;;;;;4419272;32;20086;-75
2021/06/24 06:25:06;;;;;;;1.73;0.60;;;17.10;99.90;;;;;;4417631;32;20069;-75
2021/06/24 06:27:31;;;;;;;0.70;0.70;;;17.10;99.90;;;;;;4420613;32;20462;-75
2021/06/24 06:29:57;;;;;;;0.65;0.50;;;17.20;99.90;;;;;;4424503;32;20128;-75
2021/06/24 06:32:24;;;;;;;0.30;0.30;;;17.30;99.90;;;;;;4424086;32;20112;-74
2021/06/24 06:34:49;;;;;;;0.85;0.55;;;17.30;99.90;;;;;;4417870;32;20078;-74
2021/06/24 06:37:15;;;;;;;10.63;2.12;;;17.30;99.90;;;;;;4418810;32;20060;-74
2021/06/24 06:39:40;;;;;;;0.40;0.40;;;17.30;99.90;;;;;;4420283;32;20108;-75
2021/06/24 06:42:06;;;;;;;1.00;0.68;;;17.30;99.90;;;;;;4420050;32;20061;-75
2021/06/24 06:44:32;;;;;;;3.00;1.15;;;17.30;99.90;;;;;;4416925;32;20120;-74
2021/06/24 06:46:57;;;;;;;4.78;1.37;;;17.10;99.90;;;;;;4421019;32;20128;-74
2021/06/24 06:49:23;;;;;;;0.40;0.40;;;17.10;99.90;;;;;;4420115;32;20074;-74
2021/06/24 06:51:48;;;;;;;0.85;0.85;;;17.20;99.90;;;;;;4420686;32;20081;-74
2021/06/24 06:54:14;;;;;;;0.90;0.50;;;17.10;99.90;;;;;;4421160;32;20076;-74
2021/06/24 06:56:44;;;;;;;1.55;1.05;;;17.20;99.90;;;;;;4423555;32;20132;-75
2021/06/24 06:59:10;;;;;;;0.73;0.60;;;17.30;99.90;;;;;;4424652;32;20139;-74
2021/06/24 07:01:35;;;;;;;0.88;0.88;;;17.40;99.90;;;;;;4419232;32;20558;-74
2021/06/24 07:04:01;;;;;;;0.45;0.45;;;17.30;99.90;;;;;;4421901;32;20064;-75
2021/06/24 07:06:28;;;;;;;2.33;1.35;;;17.20;99.90;;;;;;4423393;32;20077;-75
2021/06/24 07:08:55;;;;;;;1.60;0.93;;;17.40;99.90;;;;;;4418585;32;20116;-75
2021/06/24 07:11:20;;;;;;;1.40;0.85;;;17.40;99.90;;;;;;4417462;32;20082;-74
2021/06/24 07:13:46;;;;;;;0.57;0.57;;;17.40;99.90;;;;;;4417080;32;20065;-74
2021/06/24 07:16:11;;;;;;;1.15;1.05;;;17.40;99.90;;;;;;4420520;32;20121;-74
2021/06/24 07:18:36;;;;;;;0.62;0.62;;;17.50;99.90;;;;;;4419799;32;20073;-74
2021/06/24 07:21:03;;;;;;;0.77;0.77;;;17.60;99.90;;;;;;4421227;32;20568;-74
2021/06/24 07:23:29;;;;;;;1.77;0.85;;;17.70;99.90;;;;;;4424587;32;20065;-74
2021/06/24 07:25:54;;;;;;;0.57;0.57;;;17.80;99.90;;;;;;4421906;32;20672;-74
2021/06/24 07:28:20;;;;;;;0.50;0.50;;;17.60;99.90;;;;;;4418445;32;20429;-74
2021/06/24 07:30:47;;;;;;;0.43;0.43;;;17.70;99.90;;;;;;4416910;32;20061;-74
2021/06/24 07:33:13;;;;;;;0.88;0.73;;;17.70;99.90;;;;;;4421341;32;20076;-74
2021/06/24 07:35:38;;;;;;;0.30;0.30;;;17.70;99.90;;;;;;4418722;32;20077;-74
2021/06/24 07:38:04;;;;;;;3.12;1.12;;;17.60;99.90;;;;;;4419060;32;20491;-74
2021/06/24 07:40:29;;;;;;;0.65;0.65;;;17.60;99.90;;;;;;4422169;32;20569;-74
2021/06/24 07:42:55;;;;;;;0.75;0.75;;;17.50;99.90;;;;;;4424914;32;20090;-74
2021/06/24 07:45:21;;;;;;;0.47;0.47;;;17.50;99.90;;;;;;4422369;32;20086;-74
2021/06/24 07:47:46;;;;;;;1.00;0.93;;;17.60;99.90;;;;;;4422331;32;20176;-74
2021/06/24 07:50:12;;;;;;;2.28;1.00;;;17.80;99.90;;;;;;4419100;32;20097;-74
2021/06/24 07:52:37;;;;;;;6.15;1.12;;;17.80;99.90;;;;;;4418864;32;20065;-74
2021/06/24 07:55:07;;;;;;;1.50;0.57;;;17.80;99.90;;;;;;4421706;32;20120;-74
2021/06/24 07:57:32;;;;;;;2.83;1.12;;;17.90;99.90;;;;;;4422493;32;20070;-74
2021/06/24 07:59:58;;;;;;;0.82;0.80;;;17.90;99.90;;;;;;4420498;32;20069;-74
2021/06/24 08:02:23;;;;;;;0.50;0.50;;;17.90;99.90;;;;;;4422855;32;20073;-74
2021/06/24 08:04:49;;;;;;;1.62;0.90;;;17.90;99.90;;;;;;4420670;32;20086;-74
2021/06/24 08:07:14;;;;;;;0.60;0.60;;;17.80;99.90;;;;;;4422151;32;20086;-74
2021/06/24 08:09:40;;;;;;;1.45;1.20;;;17.90;99.90;;;;;;4421138;32;20077;-74
2021/06/24 08:12:06;;;;;;;16.17;0.73;;;17.90;99.90;;;;;;4418084;32;20116;-74
2021/06/24 08:14:31;;;;;;;0.50;0.50;;;18.00;99.90;;;;;;4418088;32;20087;-74
2021/06/24 08:16:57;;;;;;;4.30;1.10;;;18.10;99.90;;;;;;4418855;32;20077;-74
2021/06/24 08:19:22;;;;;;;0.65;0.50;;;18.20;99.90;;;;;;4420538;32;20080;-74
2021/06/24 08:21:48;;;;;;;0.57;0.55;;;18.10;99.90;;;;;;4419270;32;20361;-74
2021/06/24 08:24:14;;;;;;;0.73;0.60;;;18.10;99.90;;;;;;4420995;32;20073;-74
2021/06/24 08:26:39;;;;;;;0.70;0.70;;;18.00;99.90;;;;;;4423693;32;20151;-74
2021/06/24 08:29:05;;;;;;;1.80;0.90;;;18.00;99.90;;;;;;4423658;32;20069;-74
2021/06/24 08:31:30;;;;;;;3.55;1.02;;;17.90;99.90;;;;;;4421608;32;20060;-74
2021/06/24 08:33:56;;;;;;;0.40;0.40;;;18.00;99.90;;;;;;4422151;32;20591;-74
2021/06/24 08:36:22;;;;;;;1.33;0.80;;;18.20;99.90;;;;;;4425001;32;20078;-74
2021/06/24 08:38:47;;;;;;;1.12;0.52;;;18.20;99.90;;;;;;4421125;32;20174;-74
2021/06/24 08:41:15;;;;;;;1.98;0.70;;;18.30;99.90;;;;;;4421547;32;20078;-75
2021/06/24 08:43:41;;;;;;;2.20;0.90;;;18.30;99.90;;;;;;4422210;32;20494;-74
2021/06/24 08:46:07;;;;;;;2.92;1.00;;;18.20;99.90;;;;;;4425174;32;20514;-74
2021/06/24 08:48:34;;;;;;;1.00;0.57;;;18.20;99.90;;;;;;4421555;32;20116;-75
2021/06/24 08:51:00;;;;;;;0.75;0.75;;;18.20;99.90;;;;;;4423300;32;20087;-75
2021/06/24 08:53:26;;;;;;;0.93;0.80;;;18.20;99.90;;;;;;4419327;32;20440;-74
2021/06/24 08:55:55;;;;;;;2.92;0.93;;;18.30;99.90;;;;;;4422393;32;20089;-74
2021/06/24 08:58:21;;;;;;;0.50;0.50;;;18.40;99.90;;;;;;4423827;32;20073;-74
2021/06/24 09:00:48;;;;;;;1.05;0.90;;;18.40;99.90;;;;;;4422569;32;20080;-75
2021/06/24 09:03:19;;;;;;;0.57;0.57;;;18.40;99.90;;;;;;4424705;32;20579;-75
2021/06/24 09:06:04;;;;;;;6.53;1.95;;;18.40;99.90;;;;;;4420329;32;20129;-75
2021/06/24 09:08:39;;;;;;;1.25;0.82;;;18.40;99.90;;;;;;4419587;32;20077;-75
2021/06/24 09:11:26;;;;;;;1.30;0.80;;;18.40;99.90;;;;;;4421946;32;20174;-75
2021/06/24 09:14:15;;;;;;;0.45;0.45;;;18.50;99.90;;;;;;4409273;32;20086;-75
2021/06/24 09:16:42;;;;;;;1.05;0.95;;;18.50;99.90;;;;;;4420478;32;20077;-75
2021/06/24 09:19:27;;;;;;;0.52;0.52;;;18.70;99.90;;;;;;4423121;32;20541;-75
2021/06/24 09:21:59;;;;;;;3.42;1.33;;;18.80;99.90;;;;;;4423660;32;20073;-75
2021/06/24 09:24:27;;;;;;;1.25;0.62;;;18.90;99.90;;;;;;4419129;32;20499;-75
2021/06/24 09:26:54;;;;;;;1.27;0.93;;;18.90;99.90;;;;;;4423215;32;20070;-75
2021/06/24 09:29:20;;;;;;;0.52;0.52;;;18.80;99.90;;;;;;4419678;32;20518;-76
2021/06/24 09:31:55;;;;;;;0.50;0.50;;;18.80;99.90;;;;;;4423363;32;20117;-75
2021/06/24 09:34:22;;;;;;;2.33;0.77;;;18.80;99.90;;;;;;4419724;32;20070;-75
2021/06/24 09:36:51;;;;;;;1.87;1.23;;;18.80;99.90;;;;;;4421205;32;20148;-75
2021/06/24 09:39:25;;;;;;;1.08;0.95;;;18.80;99.90;;;;;;4423369;32;20065;-75
2021/06/24 09:42:02;;;;;;;2.58;1.58;;;18.80;99.90;;;;;;4417717;32;113538;-75
2021/06/24 09:44:29;;;;;;;2.40;1.25;;;18.80;99.90;;;;;;4419152;32;20543;-75
2021/06/24 09:46:55;;;;;;;2.62;1.30;;;18.90;99.90;;;;;;4421926;32;20050;-75
2021/06/24 09:49:26;;;;;;;2.50;0.80;;;19.10;99.90;;;;;;4423355;32;20085;-75
2021/06/24 09:51:53;;;;;;;0.47;0.47;;;19.10;99.90;;;;;;4419851;32;20064;-75
2021/06/24 09:54:19;;;;;;;3.58;0.50;;;19.10;99.90;;;;;;4418581;32;20654;-75
2021/06/24 09:56:47;;;;;;;0.80;0.80;;;19.10;99.90;;;;;;4421014;32;20069;-75
2021/06/24 09:59:15;;;;;;;5.12;0.90;;;19.10;99.90;;;;;;4424365;32;20530;-75
2021/06/24 10:01:44;;;;;;;0.52;0.52;;;19.20;99.90;;;;;;4422772;32;20064;-75
2021/06/24 10:04:22;;;;;;;2.58;1.23;;;19.20;99.90;;;;;;4424486;32;20498;-75
2021/06/24 10:06:50;;;;;;;1.27;0.88;;;19.20;99.90;;;;;;4426213;32;20711;-75
2021/06/24 10:09:16;;;;;;;0.95;0.90;;;19.30;99.90;;;;;;4421620;32;20081;-76
2021/06/24 10:11:42;;;;;;;0.60;0.60;;;19.20;99.90;;;;;;4420179;32;20069;-75
2021/06/24 10:14:08;;;;;;;3.65;0.85;;;19.20;99.90;;;;;;4422967;32;20082;-75
2021/06/24 10:16:34;;;;;;;6.62;1.58;;;19.20;99.90;;;;;;4425118;32;20069;-75
2021/06/24 10:19:00;;;;;;;0.82;0.65;;;19.30;99.90;;;;;;4423144;32;20412;-76
2021/06/24 10:21:28;;;;;;;0.60;0.60;;;19.40;99.90;;;;;;4418408;32;20057;-75
2021/06/24 10:24:00;;;;;;;0.70;0.70;;;19.40;99.90;;;;;;4420319;32;20085;-75
2021/06/24 10:26:27;;;;;;;1.00;0.75;;;19.40;99.90;;;;;;4418565;32;20061;-75
2021/06/24 10:29:10;;;;;;;0.50;0.50;;;19.30;99.90;;;;;;4421535;32;20522;-76
2021/06/24 10:31:45;;;;;;;0.40;0.40;;;19.30;99.90;;;;;;4423860;32;20069;-75
2021/06/24 10:34:12;;;;;;;0.65;0.65;;;19.50;99.90;;;;;;4422648;32;20069;-76
2021/06/24 10:36:38;;;;;;;0.60;0.60;;;19.80;99.90;;;;;;4420238;32;20128;-76
2021/06/24 10:39:04;;;;;;;1.00;0.93;;;20.00;99.90;;;;;;4421910;32;20093;-75
2021/06/24 10:42:01;;;;;;;0.60;0.60;;;20.20;99.90;;;;;;4420638;32;20062;-75
2021/06/24 10:44:53;;;;;;;0.57;0.40;;;20.30;99.90;;;;;;4412099;32;20139;-76
2021/06/24 10:47:40;;;;;;;10.50;1.12;;;20.60;99.90;;;;;;4423250;32;20073;-75
2021/06/24 10:50:31;;;;;;;3.78;0.93;;;20.80;99.90;;;;;;4412972;32;20078;-75
2021/06/24 10:53:18;;;;;;;0.35;0.35;;;21.00;99.90;;;;;;4418012;32;20397;-76
2021/06/24 10:55:47;;;;;;;0.77;0.77;;;20.90;99.90;;;;;;4417525;32;20081;-76
2021/06/24 10:58:24;;;;;;;0.52;0.52;;;21.00;99.90;;;;;;4419601;32;20065;-76
2021/06/24 11:00:53;;;;;;;2.75;0.80;;;20.90;99.90;;;;;;4414677;32;20061;-76
2021/06/24 11:03:37;;;;;;;0.30;0.30;;;20.70;99.90;;;;;;4414558;32;20066;-75
2021/06/24 11:06:23;;;;;;;0.37;0.37;;;20.60;99.90;;;;;;4427132;32;20069;-75
2021/06/24 11:08:48;;;;;;;0.55;0.55;;;20.60;99.90;;;;;;4413930;32;20085;-74
2021/06/24 11:11:16;;;;;;;0.40;0.40;;;20.60;99.90;;;;;;4413586;32;20081;-74
2021/06/24 11:13:44;;;;;;;0.47;0.47;;;20.60;99.90;;;;;;4415474;32;20136;-74
2021/06/24 11:16:13;;;;;;;0.70;0.70;;;20.50;99.90;;;;;;4420245;32;20514;-76
2021/06/24 11:18:42;;;;;;;0.73;0.73;;;20.50;99.90;;;;;;4414594;32;20515;-75
2021/06/24 11:21:29;;;;;;;0.40;0.40;;;20.60;99.90;;;;;;4418864;32;20089;-75
2021/06/24 11:23:59;;;;;;;0.70;0.70;;;20.60;99.90;;;;;;4414542;32;20408;-74
2021/06/24 11:26:28;;;;;;;0.40;0.40;;;20.60;99.90;;;;;;4423519;32;20124;-75
2021/06/24 11:29:08;;;;;;;17.12;1.23;;;20.60;99.90;;;;;;4417932;32;20090;-75
2021/06/24 11:31:39;;;;;;;0.50;0.50;;;20.60;99.90;;;;;;4421005;32;20187;-74
2021/06/24 11:34:44;;;;;;;;;;;20.50;99.90;;;;;;4428767;32;20062;-75
2021/06/24 11:36:55;;;;;;;0.60;0.47;;;20.60;99.90;;;;;;4406370;32;19973;-74
2021/06/24 11:39:23;;;;;;;4.30;2.03;;;20.70;99.90;;;;;;4421843;32;20057;-74
2021/06/24 11:41:54;;;;;;;1.33;1.00;;;20.70;99.90;;;;;;4413542;32;20499;-74
2021/06/24 11:44:28;;;;;;;0.95;0.60;;;20.80;99.90;;;;;;4413386;32;20177;-75
2021/06/24 11:47:09;;;;;;;8.00;0.50;;;20.90;99.90;;;;;;4416298;32;20078;-75
2021/06/24 12:00:27;;;;;;;1.02;0.80;;;20.90;99.90;;;;;;4416668;32;20531;-75
2021/06/24 12:00:43;;;;;;;1.08;0.45;;;20.80;99.90;;;;;;4414197;32;20066;-75
2021/06/24 12:04:03;;;;;;;0.40;0.40;;;20.80;99.90;;;;;;4404779;32;20134;-75
2021/06/24 12:06:49;;;;;;;0.80;0.80;;;20.70;99.90;;;;;;4420508;32;20061;-75
2021/06/24 12:09:21;;;;;;;2.35;0.85;;;20.70;99.90;;;;;;4432520;32;20077;-75
2021/06/24 12:11:48;;;;;;;1.12;0.62;;;20.60;99.90;;;;;;4428361;32;20161;-75
2021/06/24 12:14:16;;;;;;;3.10;0.95;;;20.50;99.90;;;;;;4415672;32;20098;-75
2021/06/24 12:17:02;;;;;;;1.55;0.47;;;20.40;99.90;;;;;;4416621;32;20479;-75
2021/06/24 12:19:42;;;;;;;0.77;0.55;;;20.40;99.90;;;;;;4404798;32;20127;-75
2021/06/24 12:22:07;;;;;;;5.22;0.68;;;20.40;99.90;;;;;;4419361;32;20074;-75
2021/06/24 12:24:33;;;;;;;1.55;0.85;;;20.30;99.90;;;;;;4431267;32;20073;-75
2021/06/24 12:27:21;;;;;;;0.80;0.80;;;20.30;99.90;;;;;;4428160;32;20065;-75
2021/06/24 12:29:48;;;;;;;0.35;0.35;;;20.20;99.90;;;;;;4410815;32;20077;-75
2021/06/24 12:32:16;;;;;;;0.75;0.45;;;20.30;99.90;;;;;;4424274;32;20058;-75
2021/06/24 12:34:42;;;;;;;0.40;0.40;;;20.50;99.90;;;;;;4424229;32;20066;-75
2021/06/24 12:37:08;;;;;;;2.97;0.82;;;20.40;99.90;;;;;;4416823;32;20057;-75
2021/06/24 12:39:33;;;;;;;0.45;0.45;;;20.50;99.90;;;;;;4429552;32;20810;-75
2021/06/24 12:42:04;;;;;;;1.95;0.95;;;20.30;99.90;;;;;;4430832;32;20090;-75
2021/06/24 12:44:35;;;;;;;0.70;0.60;;;20.40;99.90;;;;;;4431373;32;20073;-75
2021/06/24 12:47:01;;;;;;;0.30;0.30;;;20.40;99.90;;;;;;4431118;32;20069;-75
2021/06/24 12:49:26;;;;;;;1.80;0.52;;;20.30;99.90;;;;;;4430439;32;20085;-75
2021/06/24 12:51:52;;;;;;;0.62;0.62;;;20.20;99.90;;;;;;4431363;32;20065;-75
2021/06/24 12:54:19;;;;;;;0.50;0.50;;;20.10;99.90;;;;;;4427553;32;20065;-75
2021/06/24 12:56:47;;;;;;;0.70;0.70;;;20.20;99.90;;;;;;4415049;32;20125;-75
2021/06/24 12:59:19;;;;;;;0.70;0.70;;;20.20;99.90;;;;;;4415636;32;20077;-75